sensor_id;sensor_type;location;lat;lon;timestamp;pressure;altitude;pressure_sealevel;temperature;humidity
50093;BME280;35974;47.752;10.290;2023-09-30T00:00:08;94684.31;;;17.00;100.00
50093;BME280;35974;47.752;10.290;2023-09-30T00:02:35;94693.44;;;16.86;100.00
50093;BME280;35974;47.752;10.290;2023-09-30T00:05:02;94692.25;;;17.00;100.00
50093;BME280;35974;47.752;10.290;2023-09-30T00:07:30;94706.34;;;16.94;100.00
50093;BME280;35974;47.752;10.290;2023-09-30T00:09:56;94686.09;;;16.88;100.00
50093;BME280;35974;47.752;10.290;2023-09-30T00:12:23;94692.22;;;16.81;100.00
50093;BME280;35974;47.752;10.290;2023-09-30T00:14:49;94703.25;;;16.78;100.00
50093;BME280;35974;47.752;10.290;2023-09-30T00:17:16;94712.13;;;16.84;100.00
50093;BME280;35974;47.752;10.290;2023-09-30T00:19:43;94705.63;;;16.87;100.00
50093;BME280;35974;47.752;10.290;2023-09-30T00:22:11;94699.91;;;16.90;100.00
50093;BME280;35974;47.752;10.290;2023-09-30T00:24:37;94707.38;;;16.74;100.00
50093;BME280;35974;47.752;10.290;2023-09-30T00:27:04;94701.63;;;16.77;100.00
50093;BME280;35974;47.752;10.290;2023-09-30T00:29:31;94713.22;;;16.76;100.00
50093;BME280;35974;47.752;10.290;2023-09-30T00:31:57;94713.97;;;16.65;100.00
50093;BME280;35974;47.752;10.290;2023-09-30T00:34:24;94724.25;;;16.55;100.00
50093;BME280;35974;47.752;10.290;2023-09-30T00:36:50;94714.56;;;16.48;100.00
50093;BME280;35974;47.752;10.290;2023-09-30T00:39:17;94728.22;;;16.64;100.00
50093;BME280;35974;47.752;10.290;2023-09-30T00:41:45;94716.78;;;16.70;100.00
50093;BME280;35974;47.752;10.290;2023-09-30T00:44:12;94728.06;;;16.40;100.00
50093;BME280;35974;47.752;10.290;2023-09-30T00:46:39;94742.03;;;16.47;100.00
50093;BME280;35974;47.752;10.290;2023-09-30T00:49:08;94727.91;;;16.54;100.00
50093;BME280;35974;47.752;10.290;2023-09-30T00:51:36;94720.06;;;16.47;100.00
50093;BME280;35974;47.752;10.290;2023-09-30T00:54:04;94720.59;;;16.56;100.00
50093;BME280;35974;47.752;10.290;2023-09-30T00:56:33;94720.16;;;16.59;100.00
50093;BME280;35974;47.752;10.290;2023-09-30T00:59:00;94727.94;;;16.72;100.00
50093;BME280;35974;47.752;10.290;2023-09-30T01:01:27;94713.97;;;16.65;100.00
50093;BME280;35974;47.752;10.290;2023-09-30T01:03:54;94705.31;;;16.58;100.00
50093;BME280;35974;47.752;10.290;2023-09-30T01:06:22;94724.09;;;16.68;100.00
50093;BME280;35974;47.752;10.290;2023-09-30T01:08:49;94712.06;;;16.54;100.00
50093;BME280;35974;47.752;10.290;2023-09-30T01:11:16;94708.41;;;16.55;100.00
50093;BME280;35974;47.752;10.290;2023-09-30T01:13:43;94703.63;;;16.45;100.00
50093;BME280;35974;47.752;10.290;2023-09-30T01:16:11;94711.78;;;16.43;100.00
50093;BME280;35974;47.752;10.290;2023-09-30T01:18:40;94706.91;;;16.40;100.00
50093;BME280;35974;47.752;10.290;2023-09-30T01:21:10;94719.03;;;16.48;100.00
50093;BME280;35974;47.752;10.290;2023-09-30T01:23:37;94711.47;;;16.33;100.00
50093;BME280;35974;47.752;10.290;2023-09-30T01:26:09;94722.03;;;16.33;100.00
50093;BME280;35974;47.752;10.290;2023-09-30T01:28:36;94720.84;;;16.29;100.00
50093;BME280;35974;47.752;10.290;2023-09-30T01:31:02;94696.78;;;16.19;100.00
50093;BME280;35974;47.752;10.290;2023-09-30T01:33:29;94715.00;;;16.27;100.00
50093;BME280;35974;47.752;10.290;2023-09-30T01:35:57;94707.19;;;16.14;100.00
50093;BME280;35974;47.752;10.290;2023-09-30T01:38:24;94715.28;;;16.19;100.00
50093;BME280;35974;47.752;10.290;2023-09-30T01:40:50;94705.56;;;16.13;100.00
50093;BME280;35974;47.752;10.290;2023-09-30T01:43:17;94693.38;;;16.11;100.00
50093;BME280;35974;47.752;10.290;2023-09-30T01:45:44;94692.22;;;16.07;100.00
50093;BME280;35974;47.752;10.290;2023-09-30T01:48:11;94682.97;;;15.98;100.00
50093;BME280;35974;47.752;10.290;2023-09-30T01:50:38;94707.19;;;16.14;100.00
50093;BME280;35974;47.752;10.290;2023-09-30T01:53:06;94691.22;;;16.08;100.00
50093;BME280;35974;47.752;10.290;2023-09-30T01:55:33;94691.03;;;16.03;100.00
50093;BME280;35974;47.752;10.290;2023-09-30T01:58:00;94698.31;;;16.08;100.00
50093;BME280;35974;47.752;10.290;2023-09-30T02:00:26;94681.72;;;16.01;100.00
50093;BME280;35974;47.752;10.290;2023-09-30T02:02:57;94693.44;;;16.05;100.00
50093;BME280;35974;47.752;10.290;2023-09-30T02:05:24;94688.22;;;15.98;100.00
50093;BME280;35974;47.752;10.290;2023-09-30T02:07:51;94665.34;;;15.92;100.00
50093;BME280;35974;47.752;10.290;2023-09-30T02:10:17;94666.38;;;15.91;100.00
50093;BME280;35974;47.752;10.290;2023-09-30T02:12:47;94678.16;;;15.88;100.00
50093;BME280;35974;47.752;10.290;2023-09-30T02:15:14;94684.00;;;15.97;100.00
50093;BME280;35974;47.752;10.290;2023-09-30T02:17:41;94672.72;;;16.08;100.00
50093;BME280;35974;47.752;10.290;2023-09-30T02:20:12;94689.44;;;16.02;100.00
50093;BME280;35974;47.752;10.290;2023-09-30T02:22:43;94698.50;;;15.88;100.00
50093;BME280;35974;47.752;10.290;2023-09-30T02:25:11;94674.63;;;15.69;100.00
50093;BME280;35974;47.752;10.290;2023-09-30T02:27:40;94680.38;;;15.66;100.00
50093;BME280;35974;47.752;10.290;2023-09-30T02:30:10;94688.88;;;15.68;100.00
50093;BME280;35974;47.752;10.290;2023-09-30T02:32:38;94702.44;;;15.72;100.00
50093;BME280;35974;47.752;10.290;2023-09-30T02:35:06;94682.41;;;15.64;100.00
50093;BME280;35974;47.752;10.290;2023-09-30T02:37:34;94680.81;;;15.63;100.00
50093;BME280;35974;47.752;10.290;2023-09-30T02:40:07;94692.22;;;15.57;100.00
50093;BME280;35974;47.752;10.290;2023-09-30T02:42:37;94683.16;;;15.78;100.00
50093;BME280;35974;47.752;10.290;2023-09-30T02:45:05;94683.22;;;15.65;100.00
50093;BME280;35974;47.752;10.290;2023-09-30T02:47:32;94694.38;;;15.67;100.00
50093;BME280;35974;47.752;10.290;2023-09-30T02:49:58;94678.84;;;15.52;100.00
50093;BME280;35974;47.752;10.290;2023-09-30T02:52:25;94683.31;;;15.51;100.00
50093;BME280;35974;47.752;10.290;2023-09-30T02:54:52;94672.38;;;15.48;100.00
50093;BME280;35974;47.752;10.290;2023-09-30T02:57:18;94671.63;;;15.41;100.00
50093;BME280;35974;47.752;10.290;2023-09-30T02:59:45;94659.47;;;15.40;100.00
50093;BME280;35974;47.752;10.290;2023-09-30T03:02:12;94664.31;;;15.43;100.00
50093;BME280;35974;47.752;10.290;2023-09-30T03:04:39;94677.66;;;15.48;100.00
50093;BME280;35974;47.752;10.290;2023-09-30T03:07:05;94666.25;;;15.54;100.00
50093;BME280;35974;47.752;10.290;2023-09-30T03:09:32;94689.31;;;15.65;100.00
50093;BME280;35974;47.752;10.290;2023-09-30T03:12:00;94673.22;;;15.42;100.00
50093;BME280;35974;47.752;10.290;2023-09-30T03:14:26;94675.28;;;15.40;100.00
50093;BME280;35974;47.752;10.290;2023-09-30T03:16:53;94674.53;;;15.32;100.00
50093;BME280;35974;47.752;10.290;2023-09-30T03:19:20;94664.41;;;15.29;100.00
50093;BME280;35974;47.752;10.290;2023-09-30T03:21:47;94670.53;;;15.23;100.00
50093;BME280;35974;47.752;10.290;2023-09-30T03:24:13;94680.66;;;15.26;100.00
50093;BME280;35974;47.752;10.290;2023-09-30T03:26:40;94667.72;;;15.18;100.00
50093;BME280;35974;47.752;10.290;2023-09-30T03:29:08;94667.69;;;15.25;100.00
50093;BME280;35974;47.752;10.290;2023-09-30T03:31:38;94679.81;;;15.32;100.00
50093;BME280;35974;47.752;10.290;2023-09-30T03:34:05;94667.84;;;15.30;100.00
50093;BME280;35974;47.752;10.290;2023-09-30T03:36:32;94674.47;;;15.39;100.00
50093;BME280;35974;47.752;10.290;2023-09-30T03:38:59;94664.41;;;15.29;100.00
50093;BME280;35974;47.752;10.290;2023-09-30T03:41:34;94671.38;;;15.49;100.00
50093;BME280;35974;47.752;10.290;2023-09-30T03:44:04;94671.53;;;15.54;100.00
50093;BME280;35974;47.752;10.290;2023-09-30T03:46:30;94678.00;;;15.58;100.00
50093;BME280;35974;47.752;10.290;2023-09-30T03:48:57;94676.38;;;15.57;100.00
50093;BME280;35974;47.752;10.290;2023-09-30T03:51:25;94663.88;;;15.46;100.00
50093;BME280;35974;47.752;10.290;2023-09-30T03:53:52;94654.28;;;15.26;100.00
50093;BME280;35974;47.752;10.290;2023-09-30T03:56:18;94675.88;;;15.10;100.00
50093;BME280;35974;47.752;10.290;2023-09-30T03:58:45;94681.91;;;15.17;100.00
50093;BME280;35974;47.752;10.290;2023-09-30T04:01:13;94675.03;;;15.16;100.00
50093;BME280;35974;47.752;10.290;2023-09-30T04:03:46;94679.13;;;15.12;100.00
50093;BME280;35974;47.752;10.290;2023-09-30T04:06:14;94676.47;;;15.12;100.00
50093;BME280;35974;47.752;10.290;2023-09-30T04:08:41;94680.31;;;15.16;100.00
50093;BME280;35974;47.752;10.290;2023-09-30T04:11:07;94677.84;;;15.21;100.00
50093;BME280;35974;47.752;10.290;2023-09-30T04:13:33;94687.09;;;15.30;100.00
50093;BME280;35974;47.752;10.290;2023-09-30T04:16:01;94691.19;;;15.26;100.00
50093;BME280;35974;47.752;10.290;2023-09-30T04:18:27;94702.50;;;15.33;100.00
50093;BME280;35974;47.752;10.290;2023-09-30T04:20:55;94697.84;;;15.29;100.00
50093;BME280;35974;47.752;10.290;2023-09-30T04:23:21;94684.81;;;15.09;100.00
50093;BME280;35974;47.752;10.290;2023-09-30T04:25:48;94696.13;;;15.16;100.00
50093;BME280;35974;47.752;10.290;2023-09-30T04:28:16;94699.38;;;15.18;100.00
50093;BME280;35974;47.752;10.290;2023-09-30T04:30:50;94704.97;;;15.28;100.00
50093;BME280;35974;47.752;10.290;2023-09-30T04:33:17;94696.09;;;15.23;100.00
50093;BME280;35974;47.752;10.290;2023-09-30T04:35:44;94704.81;;;15.23;100.00
50093;BME280;35974;47.752;10.290;2023-09-30T04:38:12;94717.16;;;15.29;100.00
50093;BME280;35974;47.752;10.290;2023-09-30T04:40:39;94690.66;;;15.11;100.00
50093;BME280;35974;47.752;10.290;2023-09-30T04:43:06;94685.59;;;15.16;100.00
50093;BME280;35974;47.752;10.290;2023-09-30T04:45:32;94682.28;;;15.27;100.00
50093;BME280;35974;47.752;10.290;2023-09-30T04:47:59;94694.00;;;15.31;100.00
50093;BME280;35974;47.752;10.290;2023-09-30T04:50:28;94676.38;;;15.25;100.00
50093;BME280;35974;47.752;10.290;2023-09-30T04:52:56;94682.69;;;15.24;100.00
50093;BME280;35974;47.752;10.290;2023-09-30T04:55:24;94679.44;;;15.22;100.00
50093;BME280;35974;47.752;10.290;2023-09-30T04:57:50;94682.59;;;15.37;100.00
50093;BME280;35974;47.752;10.290;2023-09-30T05:00:19;94686.25;;;15.36;100.00
50093;BME280;35974;47.752;10.290;2023-09-30T05:02:52;94683.13;;;15.21;100.00
50093;BME280;35974;47.752;10.290;2023-09-30T05:05:19;94696.88;;;15.23;100.00
50093;BME280;35974;47.752;10.290;2023-09-30T05:07:45;94689.28;;;15.08;100.00
50093;BME280;35974;47.752;10.290;2023-09-30T05:10:14;94698.56;;;15.11;100.00
50093;BME280;35974;47.752;10.290;2023-09-30T05:12:45;94706.69;;;15.09;100.00
50093;BME280;35974;47.752;10.290;2023-09-30T05:15:14;94706.72;;;15.02;100.00
50093;BME280;35974;47.752;10.290;2023-09-30T05:17:42;94710.03;;;14.98;100.00
50093;BME280;35974;47.752;10.290;2023-09-30T05:20:13;94713.22;;;15.07;100.00
50093;BME280;35974;47.752;10.290;2023-09-30T05:22:40;94697.84;;;14.97;100.00
50093;BME280;35974;47.752;10.290;2023-09-30T05:25:09;94711.50;;;15.19;100.00
50093;BME280;35974;47.752;10.290;2023-09-30T05:27:35;94698.56;;;15.11;100.00
50093;BME280;35974;47.752;10.290;2023-09-30T05:30:02;94702.59;;;15.20;100.00
50093;BME280;35974;47.752;10.290;2023-09-30T05:32:29;94725.72;;;15.18;100.00
50093;BME280;35974;47.752;10.290;2023-09-30T05:34:57;94727.78;;;15.16;100.00
50093;BME280;35974;47.752;10.290;2023-09-30T05:37:24;94729.44;;;15.04;100.00
50093;BME280;35974;47.752;10.290;2023-09-30T05:39:52;94738.34;;;15.02;100.00
50093;BME280;35974;47.752;10.290;2023-09-30T05:42:19;94718.84;;;15.10;100.00
50093;BME280;35974;47.752;10.290;2023-09-30T05:44:47;94739.31;;;15.15;100.00
50093;BME280;35974;47.752;10.290;2023-09-30T05:47:14;94732.13;;;15.29;100.00
50093;BME280;35974;47.752;10.290;2023-09-30T05:49:41;94727.69;;;15.29;100.00
50093;BME280;35974;47.752;10.290;2023-09-30T05:52:08;94732.97;;;15.29;100.00
50093;BME280;35974;47.752;10.290;2023-09-30T05:54:34;94743.50;;;15.29;100.00
50093;BME280;35974;47.752;10.290;2023-09-30T05:57:01;94714.38;;;15.11;100.00
50093;BME280;35974;47.752;10.290;2023-09-30T05:59:29;94752.09;;;15.18;100.00
50093;BME280;35974;47.752;10.290;2023-09-30T06:01:56;94743.50;;;15.29;100.00
50093;BME280;35974;47.752;10.290;2023-09-30T06:04:23;94743.59;;;15.16;100.00
50093;BME280;35974;47.752;10.290;2023-09-30T06:06:50;94736.59;;;14.96;100.00
50093;BME280;35974;47.752;10.290;2023-09-30T06:09:17;94764.72;;;15.02;100.00
50093;BME280;35974;47.752;10.290;2023-09-30T06:11:43;94758.56;;;15.15;100.00
50093;BME280;35974;47.752;10.290;2023-09-30T06:14:10;94763.81;;;15.22;100.00
50093;BME280;35974;47.752;10.290;2023-09-30T06:16:37;94737.09;;;15.12;100.00
50093;BME280;35974;47.752;10.290;2023-09-30T06:19:04;94757.53;;;15.23;100.00
50093;BME280;35974;47.752;10.290;2023-09-30T06:21:33;94767.03;;;15.31;100.00
50093;BME280;35974;47.752;10.290;2023-09-30T06:24:01;94771.44;;;15.44;100.00
50093;BME280;35974;47.752;10.290;2023-09-30T06:26:28;94762.56;;;15.31;100.00
50093;BME280;35974;47.752;10.290;2023-09-30T06:28:55;94757.19;;;15.45;100.00
50093;BME280;35974;47.752;10.290;2023-09-30T06:31:23;94763.22;;;15.59;100.00
50093;BME280;35974;47.752;10.290;2023-09-30T06:33:51;94796.59;;;15.40;100.00
50093;BME280;35974;47.752;10.290;2023-09-30T06:36:17;94783.56;;;15.45;100.00
50093;BME280;35974;47.752;10.290;2023-09-30T06:38:44;94722.06;;;14.80;100.00
50093;BME280;35974;47.752;10.290;2023-09-30T06:41:16;94754.38;;;15.08;100.00
50093;BME280;35974;47.752;10.290;2023-09-30T06:43:44;94772.25;;;15.37;100.00
50093;BME280;35974;47.752;10.290;2023-09-30T06:46:10;94788.09;;;15.37;100.00
50093;BME280;35974;47.752;10.290;2023-09-30T06:48:37;94787.72;;;15.34;100.00
50093;BME280;35974;47.752;10.290;2023-09-30T06:51:06;94753.25;;;15.22;100.00
50093;BME280;35974;47.752;10.290;2023-09-30T06:53:33;94764.16;;;15.39;100.00
50093;BME280;35974;47.752;10.290;2023-09-30T06:56:04;94783.81;;;15.75;100.00
50093;BME280;35974;47.752;10.290;2023-09-30T06:58:31;94793.19;;;15.64;100.00
50093;BME280;35974;47.752;10.290;2023-09-30T07:00:58;94789.22;;;15.87;100.00
50093;BME280;35974;47.752;10.290;2023-09-30T07:03:24;94781.81;;;15.70;100.00
50093;BME280;35974;47.752;10.290;2023-09-30T07:05:53;94785.84;;;15.80;100.00
50093;BME280;35974;47.752;10.290;2023-09-30T07:08:21;94768.53;;;15.52;100.00
50093;BME280;35974;47.752;10.290;2023-09-30T07:10:47;94774.16;;;15.62;100.00
50093;BME280;35974;47.752;10.290;2023-09-30T07:13:19;94794.19;;;15.77;100.00
50093;BME280;35974;47.752;10.290;2023-09-30T07:15:46;94779.31;;;15.75;100.00
50093;BME280;35974;47.752;10.290;2023-09-30T07:18:13;94784.13;;;15.92;100.00
50093;BME280;35974;47.752;10.290;2023-09-30T07:20:40;94802.19;;;16.20;100.00
50093;BME280;35974;47.752;10.290;2023-09-30T07:23:06;94805.16;;;16.05;100.00
50093;BME280;35974;47.752;10.290;2023-09-30T07:25:45;94796.81;;;16.08;100.00
50093;BME280;35974;47.752;10.290;2023-09-30T07:28:11;94792.97;;;16.04;100.00
50093;BME280;35974;47.752;10.290;2023-09-30T07:30:40;94801.03;;;16.09;100.00
50093;BME280;35974;47.752;10.290;2023-09-30T07:33:07;94804.72;;;16.08;100.00
50093;BME280;35974;47.752;10.290;2023-09-30T07:35:35;94809.78;;;16.35;100.00
50093;BME280;35974;47.752;10.290;2023-09-30T07:38:03;94818.84;;;16.21;100.00
50093;BME280;35974;47.752;10.290;2023-09-30T07:40:29;94832.63;;;16.23;100.00
50093;BME280;35974;47.752;10.290;2023-09-30T07:42:56;94818.72;;;16.34;100.00
50093;BME280;35974;47.752;10.290;2023-09-30T07:45:23;94825.88;;;16.52;100.00
50093;BME280;35974;47.752;10.290;2023-09-30T07:47:49;94827.84;;;16.38;100.00
50093;BME280;35974;47.752;10.290;2023-09-30T07:50:17;94844.84;;;16.42;100.00
50093;BME280;35974;47.752;10.290;2023-09-30T07:52:44;94843.38;;;15.96;100.00
50093;BME280;35974;47.752;10.290;2023-09-30T07:55:11;94843.19;;;16.23;100.00
50093;BME280;35974;47.752;10.290;2023-09-30T07:57:40;94850.84;;;16.31;100.00
50093;BME280;35974;47.752;10.290;2023-09-30T08:00:08;94859.25;;;16.21;100.00
50093;BME280;35974;47.752;10.290;2023-09-30T08:02:41;94858.47;;;16.46;100.00
50093;BME280;35974;47.752;10.290;2023-09-30T08:05:08;94841.03;;;16.38;100.00
50093;BME280;35974;47.752;10.290;2023-09-30T08:07:36;94835.00;;;16.31;100.00
50093;BME280;35974;47.752;10.290;2023-09-30T08:10:03;94815.28;;;16.08;100.00
50093;BME280;35974;47.752;10.290;2023-09-30T08:12:39;94813.44;;;16.34;100.00
50093;BME280;35974;47.752;10.290;2023-09-30T08:15:06;94812.28;;;16.30;100.00
50093;BME280;35974;47.752;10.290;2023-09-30T08:17:32;94830.19;;;16.46;100.00
50093;BME280;35974;47.752;10.290;2023-09-30T08:20:00;94817.44;;;16.43;100.00
50093;BME280;35974;47.752;10.290;2023-09-30T08:22:26;94822.00;;;16.55;100.00
50093;BME280;35974;47.752;10.290;2023-09-30T08:24:54;94814.06;;;16.55;100.00
50093;BME280;35974;47.752;10.290;2023-09-30T08:27:21;94757.28;;;15.95;100.00
50093;BME280;35974;47.752;10.290;2023-09-30T08:29:48;94830.06;;;16.41;100.00
50093;BME280;35974;47.752;10.290;2023-09-30T08:32:15;94818.34;;;16.56;100.00
50093;BME280;35974;47.752;10.290;2023-09-30T08:34:41;94845.44;;;16.95;100.00
50093;BME280;35974;47.752;10.290;2023-09-30T08:37:09;94827.50;;;16.97;100.00
50093;BME280;35974;47.752;10.290;2023-09-30T08:39:39;94843.00;;;16.93;100.00
50093;BME280;35974;47.752;10.290;2023-09-30T08:42:10;94824.22;;;16.58;100.00
50093;BME280;35974;47.752;10.290;2023-09-30T08:44:40;94811.91;;;16.70;100.00
50093;BME280;35974;47.752;10.290;2023-09-30T08:47:07;94837.66;;;17.00;100.00
50093;BME280;35974;47.752;10.290;2023-09-30T08:49:41;94851.69;;;16.75;100.00
50093;BME280;35974;47.752;10.290;2023-09-30T08:52:11;94848.16;;;16.81;100.00
50093;BME280;35974;47.752;10.290;2023-09-30T08:54:39;94852.06;;;16.79;100.00
50093;BME280;35974;47.752;10.290;2023-09-30T08:57:08;94828.38;;;16.91;100.00
50093;BME280;35974;47.752;10.290;2023-09-30T08:59:37;94853.22;;;16.83;100.00
50093;BME280;35974;47.752;10.290;2023-09-30T09:02:08;94863.34;;;16.93;100.00
50093;BME280;35974;47.752;10.290;2023-09-30T09:04:36;94841.91;;;17.19;100.00
50093;BME280;35974;47.752;10.290;2023-09-30T09:07:05;94844.53;;;17.38;100.00
50093;BME280;35974;47.752;10.290;2023-09-30T09:09:32;94805.91;;;17.37;100.00
50093;BME280;35974;47.752;10.290;2023-09-30T09:11:59;94805.31;;;17.16;100.00
50093;BME280;35974;47.752;10.290;2023-09-30T09:14:39;94810.56;;;17.53;100.00
50093;BME280;35974;47.752;10.290;2023-09-30T09:17:08;94803.66;;;17.52;100.00
50093;BME280;35974;47.752;10.290;2023-09-30T09:19:35;94800.88;;;17.47;100.00
50093;BME280;35974;47.752;10.290;2023-09-30T09:22:02;94795.13;;;17.50;100.00
50093;BME280;35974;47.752;10.290;2023-09-30T09:24:35;94809.22;;;17.63;100.00
50093;BME280;35974;47.752;10.290;2023-09-30T09:27:10;94815.31;;;17.63;100.00
50093;BME280;35974;47.752;10.290;2023-09-30T09:29:39;94814.81;;;17.54;100.00
50093;BME280;35974;47.752;10.290;2023-09-30T09:32:11;94819.13;;;17.18;100.00
50093;BME280;35974;47.752;10.290;2023-09-30T09:34:40;94793.97;;;17.46;100.00
50093;BME280;35974;47.752;10.290;2023-09-30T09:39:54;94791.91;;;17.48;100.00
50093;BME280;35974;47.752;10.290;2023-09-30T09:42:25;94794.13;;;17.33;100.00
50093;BME280;35974;47.752;10.290;2023-09-30T09:45:11;94793.31;;;17.63;100.00
50093;BME280;35974;47.752;10.290;2023-09-30T09:47:38;94779.94;;;17.76;100.00
50093;BME280;35974;47.752;10.290;2023-09-30T09:50:05;94770.25;;;17.82;100.00
50093;BME280;35974;47.752;10.290;2023-09-30T09:52:34;94782.91;;;18.10;100.00
50093;BME280;35974;47.752;10.290;2023-09-30T09:55:02;94791.19;;;18.02;100.00
50093;BME280;35974;47.752;10.290;2023-09-30T09:57:30;94788.03;;;17.63;100.00
50093;BME280;35974;47.752;10.290;2023-09-30T09:59:58;94779.88;;;17.95;100.00
50093;BME280;35974;47.752;10.290;2023-09-30T10:02:26;94770.81;;;18.26;100.00
50093;BME280;35974;47.752;10.290;2023-09-30T10:04:55;94758.50;;;18.32;100.00
50093;BME280;35974;47.752;10.290;2023-09-30T10:07:28;94775.09;;;18.39;100.00
50093;BME280;35974;47.752;10.290;2023-09-30T10:09:58;94782.22;;;18.50;100.00
50093;BME280;35974;47.752;10.290;2023-09-30T10:12:27;94769.56;;;18.52;100.00
50093;BME280;35974;47.752;10.290;2023-09-30T10:14:54;94776.94;;;18.74;100.00
50093;BME280;35974;47.752;10.290;2023-09-30T10:17:20;94767.47;;;18.78;100.00
50093;BME280;35974;47.752;10.290;2023-09-30T10:20:13;94775.44;;;18.30;100.00
50093;BME280;35974;47.752;10.290;2023-09-30T10:22:40;94772.47;;;18.51;100.00
50093;BME280;35974;47.752;10.290;2023-09-30T10:25:33;94782.91;;;18.81;100.00
50093;BME280;35974;47.752;10.290;2023-09-30T10:28:37;94789.69;;;19.00;100.00
50093;BME280;35974;47.752;10.290;2023-09-30T10:36:32;94760.06;;;19.03;100.00
50093;BME280;35974;47.752;10.290;2023-09-30T10:38:59;94775.66;;;19.00;100.00
50093;BME280;35974;47.752;10.290;2023-09-30T10:46:52;94778.78;;;18.85;100.00
50093;BME280;35974;47.752;10.290;2023-09-30T10:51:55;94766.09;;;18.63;100.00
50093;BME280;35974;47.752;10.290;2023-09-30T10:54:24;94748.69;;;18.67;100.00
50093;BME280;35974;47.752;10.290;2023-09-30T10:56:52;94765.75;;;18.83;100.00
50093;BME280;35974;47.752;10.290;2023-09-30T10:59:20;94757.25;;;19.22;100.00
50093;BME280;35974;47.752;10.290;2023-09-30T11:01:47;94755.81;;;19.60;100.00
50093;BME280;35974;47.752;10.290;2023-09-30T11:04:15;94746.63;;;19.80;100.00
50093;BME280;35974;47.752;10.290;2023-09-30T11:06:42;94754.59;;;19.51;100.00
50093;BME280;35974;47.752;10.290;2023-09-30T11:09:09;94764.28;;;20.20;100.00
50093;BME280;35974;47.752;10.290;2023-09-30T11:16:43;94764.38;;;19.33;100.00
50093;BME280;35974;47.752;10.290;2023-09-30T11:19:11;94761.81;;;19.38;100.00
50093;BME280;35974;47.752;10.290;2023-09-30T11:21:39;94747.59;;;19.16;100.00
50093;BME280;35974;47.752;10.290;2023-09-30T11:24:07;94750.88;;;18.71;100.00
50093;BME280;35974;47.752;10.290;2023-09-30T11:26:34;94759.03;;;18.81;100.00
50093;BME280;35974;47.752;10.290;2023-09-30T11:29:09;94728.31;;;18.33;100.00
50093;BME280;35974;47.752;10.290;2023-09-30T11:31:41;94754.13;;;18.49;100.00
50093;BME280;35974;47.752;10.290;2023-09-30T11:34:09;94755.25;;;18.77;100.00
50093;BME280;35974;47.752;10.290;2023-09-30T11:36:39;94745.09;;;18.97;100.00
50093;BME280;35974;47.752;10.290;2023-09-30T11:39:09;94754.56;;;18.70;100.00
50093;BME280;35974;47.752;10.290;2023-09-30T11:41:37;94743.94;;;18.93;100.00
50093;BME280;35974;47.752;10.290;2023-09-30T11:44:08;94735.25;;;19.10;100.00
50093;BME280;35974;47.752;10.290;2023-09-30T11:46:54;94747.28;;;19.00;100.00
50093;BME280;35974;47.752;10.290;2023-09-30T11:49:33;94737.06;;;18.69;100.00
50093;BME280;35974;47.752;10.290;2023-09-30T11:52:12;94741.88;;;18.95;100.00
50093;BME280;35974;47.752;10.290;2023-09-30T11:54:41;94745.69;;;18.99;100.00
50093;BME280;35974;47.752;10.290;2023-09-30T11:57:14;94738.78;;;18.87;100.00
50093;BME280;35974;47.752;10.290;2023-09-30T11:59:45;94729.00;;;19.16;100.00
50093;BME280;35974;47.752;10.290;2023-09-30T12:02:14;94707.44;;;18.83;100.00
50093;BME280;35974;47.752;10.290;2023-09-30T12:04:42;94721.53;;;19.13;100.00
50093;BME280;35974;47.752;10.290;2023-09-30T12:07:10;94717.81;;;19.14;100.00
50093;BME280;35974;47.752;10.290;2023-09-30T12:09:37;94703.34;;;19.05;100.00
50093;BME280;35974;47.752;10.290;2023-09-30T12:12:06;94683.78;;;18.82;100.00
50093;BME280;35974;47.752;10.290;2023-09-30T12:14:38;94705.59;;;19.13;100.00
50093;BME280;35974;47.752;10.290;2023-09-30T12:17:04;94689.50;;;19.31;100.00
50093;BME280;35974;47.752;10.290;2023-09-30T12:19:31;94688.16;;;19.46;100.00
50093;BME280;35974;47.752;10.290;2023-09-30T12:21:58;94693.75;;;19.32;100.00
50093;BME280;35974;47.752;10.290;2023-09-30T12:24:24;94696.41;;;19.32;100.00
50093;BME280;35974;47.752;10.290;2023-09-30T12:26:51;94692.81;;;19.38;100.00
50093;BME280;35974;47.752;10.290;2023-09-30T12:29:21;94682.03;;;19.45;100.00
50093;BME280;35974;47.752;10.290;2023-09-30T12:31:50;94693.84;;;19.83;100.00
50093;BME280;35974;47.752;10.290;2023-09-30T12:34:20;94681.41;;;19.55;100.00
50093;BME280;35974;47.752;10.290;2023-09-30T12:36:46;94677.53;;;19.46;100.00
50093;BME280;35974;47.752;10.290;2023-09-30T12:39:14;94676.41;;;19.42;100.00
50093;BME280;35974;47.752;10.290;2023-09-30T12:41:44;94688.44;;;19.61;100.00
50093;BME280;35974;47.752;10.290;2023-09-30T12:44:12;94704.94;;;19.80;100.00
50093;BME280;35974;47.752;10.290;2023-09-30T12:46:39;94696.66;;;19.48;100.00
50093;BME280;35974;47.752;10.290;2023-09-30T12:49:07;94694.59;;;19.50;100.00
50093;BME280;35974;47.752;10.290;2023-09-30T12:51:34;94700.53;;;19.86;100.00
50093;BME280;35974;47.752;10.290;2023-09-30T12:54:01;94681.47;;;19.89;100.00
50093;BME280;35974;47.752;10.290;2023-09-30T12:56:27;94675.81;;;20.02;100.00
50093;BME280;35974;47.752;10.290;2023-09-30T12:58:57;94675.31;;;19.71;100.00
50093;BME280;35974;47.752;10.290;2023-09-30T13:01:24;94701.00;;;19.83;100.00
50093;BME280;35974;47.752;10.290;2023-09-30T13:03:51;94676.19;;;19.60;100.00
50093;BME280;35974;47.752;10.290;2023-09-30T13:06:18;94684.53;;;19.81;100.00